createdAt,value
2022-08-16T00:00:20.203Z,0.00
2022-08-16T00:01:10.528Z,0.00
2022-08-16T00:02:12.995Z,0.00
2022-08-16T00:03:13.237Z,0.00
2022-08-16T00:04:10.430Z,0.00
2022-08-16T00:05:10.256Z,0.00
2022-08-16T00:06:10.233Z,0.00
2022-08-16T00:07:10.099Z,0.00
2022-08-16T00:08:10.027Z,0.00
2022-08-16T00:09:10.669Z,0.00
2022-08-16T00:10:09.885Z,0.00
2022-08-16T00:11:15.332Z,0.00
2022-08-16T00:12:09.739Z,0.00
2022-08-16T00:13:09.662Z,0.00
2022-08-16T00:14:09.588Z,0.00
2022-08-16T00:15:11.741Z,0.00
2022-08-16T00:17:06.638Z,0.00
2022-08-16T00:17:18.447Z,0.00
2022-08-16T00:18:10.326Z,0.00
2022-08-16T00:19:09.247Z,0.00
2022-08-16T00:20:12.465Z,0.00
2022-08-16T00:21:09.108Z,0.00
2022-08-16T00:22:12.994Z,0.00
2022-08-16T00:23:08.971Z,0.00
2022-08-16T00:24:11.507Z,0.00
2022-08-16T00:25:08.839Z,0.00
2022-08-16T00:26:34.965Z,0.00
2022-08-16T00:27:08.700Z,0.00
2022-08-16T00:28:08.628Z,0.00
2022-08-16T00:29:08.560Z,0.00
2022-08-16T00:30:19.490Z,0.00
2022-08-16T00:31:09.437Z,0.00
2022-08-16T00:32:08.361Z,0.00
2022-08-16T00:33:08.405Z,0.00
2022-08-16T00:34:08.240Z,0.00
2022-08-16T00:35:14.963Z,0.00
2022-08-16T00:36:08.126Z,0.00
2022-08-16T00:37:08.065Z,0.00
2022-08-16T00:38:40.148Z,0.00
2022-08-16T00:39:07.938Z,0.00
2022-08-16T00:40:07.988Z,0.00
2022-08-16T00:41:07.815Z,0.00
2022-08-16T00:42:10.128Z,0.00
2022-08-16T00:43:12.385Z,0.00
2022-08-16T00:44:07.621Z,0.00
2022-08-16T00:45:08.645Z,0.00
2022-08-16T00:46:22.268Z,0.00
2022-08-16T00:47:07.439Z,0.00
2022-08-16T00:48:31.068Z,0.00
2022-08-16T00:49:07.311Z,0.00
2022-08-16T00:50:11.394Z,0.00
2022-08-16T00:51:07.181Z,0.00
2022-08-16T00:52:29.864Z,0.00
2022-08-16T00:53:08.068Z,0.00
2022-08-16T00:54:06.987Z,0.00
2022-08-16T00:55:08.500Z,0.00
2022-08-16T00:56:06.853Z,0.00
2022-08-16T00:57:06.784Z,0.00
2022-08-16T00:58:13.192Z,0.00
2022-08-16T00:59:06.650Z,0.00
2022-08-16T01:00:06.590Z,0.00
2022-08-16T01:01:08.282Z,0.00
2022-08-16T01:02:30.470Z,0.00
2022-08-16T01:03:06.369Z,0.00
2022-08-16T01:04:06.293Z,0.00
2022-08-16T01:05:10.900Z,0.00
2022-08-16T01:06:32.559Z,0.00
2022-08-16T01:07:07.089Z,0.00
2022-08-16T01:08:35.160Z,0.00
2022-08-16T01:09:05.935Z,0.00
2022-08-16T01:10:16.532Z,0.00
2022-08-16T01:11:06.531Z,0.00
2022-08-16T01:12:08.436Z,0.00
2022-08-16T01:13:05.800Z,0.00
2022-08-16T01:14:05.571Z,0.00
2022-08-16T01:15:05.497Z,0.00
2022-08-16T01:16:05.425Z,0.00
2022-08-16T01:17:08.389Z,0.00
2022-08-16T01:18:05.816Z,0.00
2022-08-16T01:19:05.208Z,0.00
2022-08-16T01:20:05.134Z,0.00
2022-08-16T01:21:05.067Z,0.00
2022-08-16T01:22:47.568Z,0.00
2022-08-16T01:23:08.889Z,0.00
2022-08-16T01:24:04.854Z,0.00
2022-08-16T01:25:04.783Z,0.00
2022-08-16T01:26:33.524Z,0.00
2022-08-16T01:27:05.648Z,0.00
2022-08-16T01:28:04.664Z,0.00
2022-08-16T01:29:04.491Z,0.00
2022-08-16T01:30:04.421Z,0.00
2022-08-16T01:31:04.352Z,0.00
2022-08-16T01:32:04.278Z,0.00
2022-08-16T01:33:15.182Z,0.00
2022-08-16T01:34:04.083Z,0.00
2022-08-16T01:35:04.067Z,0.00
2022-08-16T01:36:11.806Z,0.00
2022-08-16T01:37:04.930Z,0.00
2022-08-16T01:38:03.846Z,0.00
2022-08-16T01:39:03.769Z,0.00
2022-08-16T01:40:07.134Z,0.00
2022-08-16T01:41:03.630Z,0.00
2022-08-16T01:42:03.544Z,0.00
2022-08-16T01:43:03.469Z,0.00
2022-08-16T01:44:03.392Z,0.00
2022-08-16T01:45:03.469Z,0.00
2022-08-16T01:46:37.101Z,0.00
2022-08-16T01:47:03.173Z,0.00
2022-08-16T01:48:03.104Z,0.00
2022-08-16T01:49:03.029Z,0.00
2022-08-16T01:50:42.741Z,0.00
2022-08-16T01:51:09.644Z,0.00
2022-08-16T01:52:02.812Z,0.00
2022-08-16T01:53:02.740Z,0.00
2022-08-16T01:54:02.663Z,0.00
2022-08-16T01:55:02.584Z,0.00
2022-08-16T01:56:02.510Z,0.00
2022-08-16T01:57:02.437Z,0.00
2022-08-16T01:58:02.366Z,0.00
2022-08-16T01:59:02.283Z,0.00
2022-08-16T02:00:02.208Z,0.00
2022-08-16T02:01:02.246Z,0.00
2022-08-16T02:02:02.078Z,0.00
2022-08-16T02:03:02.494Z,0.00
2022-08-16T02:04:10.838Z,0.00
2022-08-16T02:05:02.835Z,0.00
2022-08-16T02:06:01.747Z,0.00
2022-08-16T02:07:01.672Z,0.00
2022-08-16T02:08:01.604Z,0.00
2022-08-16T02:09:01.535Z,0.00
2022-08-16T02:10:01.993Z,0.00
2022-08-16T02:11:01.377Z,0.00
2022-08-16T02:12:49.672Z,0.00
2022-08-16T02:13:01.324Z,0.00
2022-08-16T02:14:01.152Z,0.00
2022-08-16T02:15:01.128Z,0.00
2022-08-16T02:16:01.002Z,0.00
2022-08-16T02:17:00.933Z,0.00
2022-08-16T02:18:01.243Z,0.00
2022-08-16T02:19:00.776Z,0.00
2022-08-16T02:20:00.953Z,0.00
2022-08-16T02:21:00.626Z,0.00
2022-08-16T02:22:07.712Z,0.00
2022-08-16T02:23:01.669Z,0.00
2022-08-16T02:24:00.402Z,0.00
2022-08-16T02:25:00.345Z,0.00
2022-08-16T02:26:00.265Z,0.00
2022-08-16T02:27:00.190Z,0.00
2022-08-16T02:28:00.119Z,0.00
2022-08-16T02:29:00.063Z,0.00
2022-08-16T02:30:04.878Z,0.00
2022-08-16T02:30:59.908Z,0.00
2022-08-16T02:32:04.530Z,0.00
2022-08-16T02:32:59.756Z,0.00
2022-08-16T02:33:59.683Z,0.00
2022-08-16T02:34:59.614Z,0.00
2022-08-16T02:36:00.205Z,0.00
2022-08-16T02:36:59.416Z,0.00
2022-08-16T02:38:08.489Z,0.00
2022-08-16T02:38:59.276Z,0.00
2022-08-16T02:39:59.281Z,0.00
2022-08-16T02:40:59.178Z,0.00
2022-08-16T02:41:59.101Z,0.00
2022-08-16T02:42:59.036Z,0.00
2022-08-16T02:43:58.965Z,0.00
2022-08-16T02:44:58.896Z,0.00
2022-08-16T02:45:58.825Z,0.00
2022-08-16T02:46:58.731Z,0.00
2022-08-16T02:48:01.187Z,0.00
2022-08-16T02:49:00.276Z,0.00
2022-08-16T02:50:54.257Z,0.00
2022-08-16T02:51:06.043Z,0.00
2022-08-16T02:51:58.387Z,0.00
2022-08-16T02:52:58.317Z,0.00
2022-08-16T02:53:58.243Z,0.00
2022-08-16T02:54:58.173Z,0.00
2022-08-16T02:55:58.107Z,0.00
2022-08-16T02:56:58.032Z,0.00
2022-08-16T02:57:57.968Z,0.00
2022-08-16T02:58:57.902Z,0.00
2022-08-16T02:59:57.835Z,0.00
2022-08-16T03:00:57.951Z,0.00
2022-08-16T03:01:57.790Z,0.00
2022-08-16T03:02:57.640Z,0.00
2022-08-16T03:04:28.697Z,0.00
2022-08-16T03:04:58.529Z,0.00
2022-08-16T03:05:57.456Z,0.00
2022-08-16T03:06:57.626Z,0.00
2022-08-16T03:07:57.328Z,0.00
2022-08-16T03:08:57.270Z,0.00
2022-08-16T03:10:00.440Z,0.00
2022-08-16T03:10:59.174Z,0.00
2022-08-16T03:11:57.060Z,0.00
2022-08-16T03:12:57.050Z,0.00
2022-08-16T03:13:56.963Z,0.00
2022-08-16T03:14:56.849Z,0.00
2022-08-16T03:15:56.780Z,0.00
2022-08-16T03:16:59.782Z,0.00
2022-08-16T03:17:56.620Z,0.00
2022-08-16T03:18:56.586Z,0.00
2022-08-16T03:20:02.443Z,0.00
2022-08-16T03:20:57.461Z,0.00
2022-08-16T03:21:56.389Z,0.00
2022-08-16T03:22:56.581Z,0.00
2022-08-16T03:23:56.243Z,0.00
2022-08-16T03:24:57.640Z,0.00
2022-08-16T03:25:56.106Z,0.00
2022-08-16T03:26:58.168Z,0.00
2022-08-16T03:27:55.972Z,0.00
2022-08-16T03:28:55.903Z,0.00
2022-08-16T03:29:55.838Z,0.00
2022-08-16T03:30:55.775Z,0.00
2022-08-16T03:31:55.708Z,0.00
2022-08-16T03:32:55.646Z,0.00
2022-08-16T03:33:55.545Z,0.00
2022-08-16T03:34:55.518Z,0.00
2022-08-16T03:35:57.020Z,0.00
2022-08-16T03:36:55.387Z,0.00
2022-08-16T03:38:03.273Z,0.00
2022-08-16T03:38:55.263Z,0.00
2022-08-16T03:39:56.583Z,0.00
2022-08-16T03:40:55.139Z,0.00
2022-08-16T03:41:59.568Z,0.00
2022-08-16T03:43:18.677Z,0.00
2022-08-16T03:43:54.947Z,0.00
2022-08-16T03:45:03.051Z,0.00
2022-08-16T03:45:54.817Z,0.00
2022-08-16T03:46:54.773Z,0.00
2022-08-16T03:47:59.729Z,0.00
2022-08-16T03:48:54.621Z,0.00
2022-08-16T03:49:54.728Z,0.00
2022-08-16T03:51:00.214Z,0.00
2022-08-16T03:51:54.435Z,0.00
2022-08-16T03:52:59.682Z,0.00
2022-08-16T03:54:00.715Z,0.00
2022-08-16T03:54:58.097Z,0.00
2022-08-16T03:55:54.171Z,0.00
2022-08-16T03:56:56.737Z,0.00
2022-08-16T03:57:54.049Z,0.00
2022-08-16T03:58:53.984Z,0.00
2022-08-16T03:59:53.919Z,0.00
2022-08-16T04:00:59.011Z,0.00
2022-08-16T04:01:53.961Z,0.00
2022-08-16T04:02:53.718Z,0.00
2022-08-16T04:03:55.081Z,0.00
2022-08-16T04:04:53.587Z,0.00
2022-08-16T04:05:54.051Z,0.00
2022-08-16T04:06:53.450Z,0.00
2022-08-16T04:07:53.386Z,5.62
2022-08-16T04:08:53.322Z,5.62
2022-08-16T04:09:53.251Z,5.62
2022-08-16T04:10:53.190Z,5.62
2022-08-16T04:11:53.117Z,5.62
2022-08-16T04:13:00.606Z,5.62
2022-08-16T04:14:00.813Z,11.25
2022-08-16T04:14:52.901Z,11.25
2022-08-16T04:15:52.976Z,11.25
2022-08-16T04:16:52.771Z,11.25
2022-08-16T04:17:52.710Z,11.25
2022-08-16T04:18:52.648Z,16.87
2022-08-16T04:19:54.724Z,16.87
2022-08-16T04:20:52.515Z,16.87
2022-08-16T04:21:52.450Z,16.87
2022-08-16T04:22:52.377Z,22.50
2022-08-16T04:23:52.256Z,22.50
2022-08-16T04:24:54.157Z,22.50
2022-08-16T04:25:52.177Z,28.12
2022-08-16T04:26:52.099Z,28.12
2022-08-16T04:27:54.067Z,28.12
2022-08-16T04:29:14.647Z,33.75
2022-08-16T04:29:52.340Z,33.75
2022-08-16T04:30:51.848Z,33.75
2022-08-16T04:31:56.284Z,39.37
2022-08-16T04:32:51.753Z,39.37
2022-08-16T04:33:51.651Z,45.00
2022-08-16T04:34:51.587Z,45.00
2022-08-16T04:35:51.525Z,45.00
2022-08-16T04:36:51.457Z,50.62
2022-08-16T04:37:53.673Z,56.25
2022-08-16T04:38:52.509Z,56.25
2022-08-16T04:39:55.846Z,56.25
2022-08-16T04:40:51.249Z,56.25
2022-08-16T04:41:57.021Z,61.87
2022-08-16T04:42:51.217Z,61.87
2022-08-16T04:43:50.999Z,61.87
2022-08-16T04:44:53.572Z,67.50
2022-08-16T04:46:00.024Z,67.50
2022-08-16T04:47:02.845Z,67.50
2022-08-16T04:47:56.262Z,73.12
2022-08-16T04:48:50.662Z,73.12
2022-08-16T04:49:50.598Z,78.75
2022-08-16T04:50:50.534Z,78.75
2022-08-16T04:51:53.826Z,84.37
2022-08-16T04:52:50.403Z,84.37
2022-08-16T04:53:50.332Z,90.00
2022-08-16T04:54:50.261Z,90.00
2022-08-16T04:55:53.310Z,95.62
2022-08-16T04:56:50.120Z,95.62
2022-08-16T04:57:53.307Z,101.25
2022-08-16T04:58:49.990Z,101.25
2022-08-16T04:59:49.926Z,106.87
2022-08-16T05:00:49.867Z,106.87
2022-08-16T05:01:59.055Z,112.50
2022-08-16T05:02:54.789Z,112.50
2022-08-16T05:04:00.324Z,118.12
2022-08-16T05:04:49.634Z,118.12
2022-08-16T05:05:55.799Z,123.75
2022-08-16T05:06:49.473Z,129.37
2022-08-16T05:07:57.721Z,129.37
2022-08-16T05:08:49.343Z,135.00
2022-08-16T05:09:50.289Z,135.00
2022-08-16T05:10:49.210Z,140.62
2022-08-16T05:11:49.146Z,140.62
2022-08-16T05:12:49.249Z,140.62
2022-08-16T05:13:49.014Z,151.87
2022-08-16T05:15:02.094Z,157.50
2022-08-16T05:15:49.814Z,157.50
2022-08-16T05:16:48.811Z,163.12
2022-08-16T05:17:48.740Z,180.00
2022-08-16T05:18:48.634Z,185.62
2022-08-16T05:19:58.375Z,185.62
2022-08-16T05:21:09.441Z,185.62
2022-08-16T05:21:48.462Z,191.25
2022-08-16T05:22:48.730Z,202.50
2022-08-16T05:23:55.466Z,208.12
2022-08-16T05:24:48.250Z,213.75
2022-08-16T05:25:49.028Z,219.37
2022-08-16T05:26:51.521Z,230.62
2022-08-16T05:27:48.031Z,236.25
2022-08-16T05:28:47.962Z,247.50
2022-08-16T05:30:00.065Z,247.50
2022-08-16T05:30:50.518Z,253.12
2022-08-16T05:31:48.210Z,253.12
2022-08-16T05:32:47.783Z,253.12
2022-08-16T05:33:51.622Z,253.12
2022-08-16T05:34:47.494Z,247.50
2022-08-16T05:35:55.127Z,247.50
2022-08-16T05:36:47.321Z,241.87
2022-08-16T05:37:47.236Z,241.87
2022-08-16T05:38:47.148Z,236.25
2022-08-16T05:39:47.145Z,236.25
2022-08-16T05:40:59.994Z,236.25
2022-08-16T05:41:46.883Z,236.25
2022-08-16T05:42:49.198Z,236.25
2022-08-16T05:43:47.978Z,236.25
2022-08-16T05:44:46.597Z,225.00
2022-08-16T05:45:46.499Z,225.00
2022-08-16T05:46:46.401Z,230.62
2022-08-16T05:47:46.301Z,225.00
2022-08-16T05:48:46.207Z,219.37
2022-08-16T05:49:50.712Z,225.00
2022-08-16T05:50:46.011Z,225.00
2022-08-16T05:51:46.075Z,225.00
2022-08-16T05:52:45.932Z,219.37
2022-08-16T05:53:45.722Z,208.12
2022-08-16T05:54:47.459Z,196.87
2022-08-16T05:55:45.527Z,196.87
2022-08-16T05:56:45.432Z,196.87
2022-08-16T05:57:45.331Z,196.87
2022-08-16T05:58:45.235Z,196.87
2022-08-16T05:59:45.137Z,196.87
2022-08-16T06:00:45.055Z,196.87
2022-08-16T06:01:45.013Z,196.87
2022-08-16T06:02:44.873Z,202.50
2022-08-16T06:03:44.748Z,202.50
2022-08-16T06:04:44.964Z,208.12
2022-08-16T06:05:44.567Z,213.75
2022-08-16T06:06:55.980Z,213.75
2022-08-16T06:07:45.409Z,219.37
2022-08-16T06:08:46.496Z,225.00
2022-08-16T06:09:44.535Z,230.62
2022-08-16T06:11:02.777Z,230.62
2022-08-16T06:11:44.051Z,236.25
2022-08-16T06:12:44.015Z,241.87
2022-08-16T06:13:43.874Z,247.50
2022-08-16T06:14:43.794Z,253.12
2022-08-16T06:15:43.700Z,258.75
2022-08-16T06:16:43.612Z,264.37
2022-08-16T06:17:44.515Z,275.62
2022-08-16T06:18:43.439Z,292.50
2022-08-16T06:19:44.637Z,298.12
2022-08-16T06:20:55.582Z,331.87
2022-08-16T06:21:44.194Z,331.87
2022-08-16T06:22:44.645Z,348.75
2022-08-16T06:23:43.005Z,382.50
2022-08-16T06:24:53.843Z,393.75
2022-08-16T06:25:42.824Z,410.62
2022-08-16T06:26:45.970Z,410.62
2022-08-16T06:27:57.212Z,405.00
2022-08-16T06:28:42.542Z,399.37
2022-08-16T06:29:42.437Z,393.75
2022-08-16T06:30:43.334Z,393.75
2022-08-16T06:31:49.183Z,382.50
2022-08-16T06:32:43.166Z,382.50
2022-08-16T06:33:44.983Z,376.87
2022-08-16T06:34:56.499Z,382.50
2022-08-16T06:35:41.878Z,382.50
2022-08-16T06:36:41.696Z,388.12
2022-08-16T06:37:42.980Z,388.12
2022-08-16T06:38:55.978Z,388.12
2022-08-16T06:39:49.941Z,388.12
2022-08-16T06:40:41.256Z,388.12
2022-08-16T06:41:42.158Z,393.75
2022-08-16T06:42:47.825Z,393.75
2022-08-16T06:43:40.913Z,399.37
2022-08-16T06:44:40.782Z,399.37
2022-08-16T06:45:43.214Z,405.00
2022-08-16T06:46:40.538Z,405.00
2022-08-16T06:47:52.799Z,410.62
2022-08-16T06:48:42.692Z,416.25
2022-08-16T06:49:40.175Z,416.25
2022-08-16T06:50:40.055Z,416.25
2022-08-16T06:51:46.502Z,416.25
2022-08-16T06:52:58.516Z,421.87
2022-08-16T06:53:39.699Z,421.87
2022-08-16T06:54:39.572Z,427.50
2022-08-16T06:55:39.407Z,427.50
2022-08-16T06:56:39.281Z,438.75
2022-08-16T06:57:39.613Z,438.75
2022-08-16T06:58:39.021Z,466.87
2022-08-16T06:59:52.448Z,444.37
2022-08-16T07:00:38.821Z,444.37
2022-08-16T07:01:44.556Z,444.37
2022-08-16T07:02:38.614Z,444.37
2022-08-16T07:03:55.227Z,450.00
2022-08-16T07:04:38.323Z,455.62
2022-08-16T07:05:41.490Z,461.25
2022-08-16T07:06:38.066Z,466.87
2022-08-16T07:07:37.935Z,466.87
2022-08-16T07:08:37.806Z,461.25
2022-08-16T07:09:37.614Z,483.75
2022-08-16T07:10:37.526Z,483.75
2022-08-16T07:11:47.447Z,534.37
2022-08-16T07:12:47.084Z,601.87
2022-08-16T07:14:00.359Z,601.87
2022-08-16T07:14:37.999Z,607.50
2022-08-16T07:15:36.846Z,641.25
2022-08-16T07:16:37.714Z,703.12
2022-08-16T07:17:36.570Z,826.87
2022-08-16T07:18:36.424Z,956.25
2022-08-16T07:20:29.408Z,961.87
2022-08-16T07:20:47.715Z,1057.50
2022-08-16T07:21:46.172Z,1102.50
2022-08-16T07:22:39.033Z,973.12
2022-08-16T07:23:37.263Z,888.75
2022-08-16T07:24:35.573Z,905.62
2022-08-16T07:25:40.361Z,922.50
2022-08-16T07:26:35.290Z,978.75
2022-08-16T07:27:37.474Z,1102.50
2022-08-16T07:28:35.017Z,1153.12
2022-08-16T07:29:34.877Z,1085.62
2022-08-16T07:30:38.997Z,1074.37
2022-08-16T07:31:37.775Z,1108.12
2022-08-16T07:32:34.460Z,1141.87
2022-08-16T07:33:52.313Z,1147.50
2022-08-16T07:34:35.685Z,1113.75
2022-08-16T07:35:34.020Z,1091.25
2022-08-16T07:36:33.861Z,1102.50
2022-08-16T07:37:33.715Z,1096.87
2022-08-16T07:38:34.180Z,1147.50
2022-08-16T07:39:34.043Z,1147.50
2022-08-16T07:40:59.639Z,1141.87
2022-08-16T07:41:33.109Z,1141.87
2022-08-16T07:42:55.078Z,1096.87
2022-08-16T07:43:33.783Z,1080.00
2022-08-16T07:44:49.031Z,1158.75
2022-08-16T07:45:33.691Z,1181.25
2022-08-16T07:46:39.671Z,1181.25
2022-08-16T07:47:33.164Z,1260.00
2022-08-16T07:48:31.990Z,1271.25
2022-08-16T07:49:32.251Z,1260.00
2022-08-16T07:50:56.494Z,1271.25
2022-08-16T07:51:32.494Z,1226.25
2022-08-16T07:52:31.316Z,1276.87
2022-08-16T07:53:31.147Z,1254.37
2022-08-16T07:54:37.857Z,1220.62
2022-08-16T07:55:46.037Z,1226.25
2022-08-16T07:56:34.033Z,1248.75
2022-08-16T07:57:35.071Z,1260.00
2022-08-16T07:58:35.079Z,1293.75
2022-08-16T07:59:45.652Z,1355.62
2022-08-16T08:00:29.930Z,1338.75
2022-08-16T08:01:29.751Z,1378.12
2022-08-16T08:02:29.582Z,1361.25
2022-08-16T08:03:35.725Z,1389.37
2022-08-16T08:04:33.603Z,1423.12
2022-08-16T08:05:35.775Z,1462.50
2022-08-16T08:06:28.845Z,1445.62
2022-08-16T08:07:28.691Z,1462.50
2022-08-16T08:08:50.424Z,1468.12
2022-08-16T08:09:28.289Z,1417.50
2022-08-16T08:10:29.621Z,1355.62
2022-08-16T08:11:28.369Z,1428.75
2022-08-16T08:12:32.067Z,1451.25
2022-08-16T08:13:42.027Z,1456.87
2022-08-16T08:14:29.452Z,1496.25
2022-08-16T08:15:28.707Z,1485.00
2022-08-16T08:16:30.585Z,1530.00
2022-08-16T08:17:42.697Z,1490.62
2022-08-16T08:18:29.821Z,1591.87
2022-08-16T08:19:26.487Z,1552.50
2022-08-16T08:20:28.382Z,1440.00
2022-08-16T08:21:26.236Z,1530.00
2022-08-16T08:22:25.716Z,1513.12
2022-08-16T08:23:25.515Z,1507.50
2022-08-16T08:24:31.602Z,1569.37
2022-08-16T08:25:26.104Z,1546.87
2022-08-16T08:26:25.892Z,1603.12
2022-08-16T08:27:24.676Z,1597.50
2022-08-16T08:28:26.241Z,1552.50
2022-08-16T08:29:36.828Z,1698.75
2022-08-16T08:30:51.505Z,1681.87
2022-08-16T08:31:24.846Z,1591.87
2022-08-16T08:32:58.805Z,1597.50
2022-08-16T08:33:23.394Z,1625.62
2022-08-16T08:34:23.311Z,1670.62
2022-08-16T08:35:24.503Z,1721.25
2022-08-16T08:36:22.739Z,1738.12
2022-08-16T08:37:22.519Z,1715.62
2022-08-16T08:38:45.062Z,1681.87
2022-08-16T08:39:23.144Z,1681.87
2022-08-16T08:40:24.508Z,1743.75
2022-08-16T08:41:27.692Z,1631.25
2022-08-16T08:42:25.176Z,1670.62
2022-08-16T08:43:21.147Z,1710.00
2022-08-16T08:44:28.949Z,1726.87
2022-08-16T08:45:47.355Z,1850.62
2022-08-16T08:46:21.998Z,1901.25
2022-08-16T08:47:20.208Z,1850.62
2022-08-16T08:48:34.027Z,1771.87
2022-08-16T08:49:19.736Z,1755.00
2022-08-16T08:50:31.566Z,1743.75
2022-08-16T08:51:19.269Z,1794.37
2022-08-16T08:52:33.574Z,1805.62
2022-08-16T08:53:18.791Z,1828.12
2022-08-16T08:54:20.591Z,2008.12
2022-08-16T08:55:18.312Z,1963.12
2022-08-16T08:56:22.811Z,1726.87
2022-08-16T08:57:17.830Z,1895.62
2022-08-16T08:58:18.181Z,1732.50
2022-08-16T08:59:20.271Z,1845.00
2022-08-16T09:00:17.170Z,1951.87
2022-08-16T09:01:16.849Z,2030.62
2022-08-16T09:02:16.609Z,1996.87
2022-08-16T09:03:16.360Z,1923.75
2022-08-16T09:04:17.557Z,2047.50
2022-08-16T09:05:16.407Z,2109.37
2022-08-16T09:06:15.619Z,1985.62
2022-08-16T09:07:15.372Z,1996.87
2022-08-16T09:08:15.125Z,2103.75
2022-08-16T09:09:16.869Z,2250.00
2022-08-16T09:10:20.472Z,2131.87
2022-08-16T09:11:15.799Z,1957.50
2022-08-16T09:12:30.247Z,1918.12
2022-08-16T09:13:13.853Z,1940.62
2022-08-16T09:14:24.009Z,1940.62
2022-08-16T09:15:14.342Z,2030.62
2022-08-16T09:16:13.067Z,2030.62
2022-08-16T09:17:31.480Z,2036.25
2022-08-16T09:18:24.757Z,2058.75
2022-08-16T09:19:13.277Z,2058.75
2022-08-16T09:20:12.003Z,1985.62
2022-08-16T09:21:11.737Z,1996.87
2022-08-16T09:22:21.093Z,2036.25
2022-08-16T09:23:11.209Z,2238.75
2022-08-16T09:24:11.422Z,2233.12
2022-08-16T09:25:11.492Z,2143.12
2022-08-16T09:26:44.356Z,2131.87
2022-08-16T09:27:10.126Z,2227.50
2022-08-16T09:28:10.320Z,2148.75
2022-08-16T09:29:16.821Z,2266.87
2022-08-16T09:30:33.625Z,2148.75
2022-08-16T09:31:10.798Z,2148.75
2022-08-16T09:32:08.744Z,2233.12
2022-08-16T09:33:08.458Z,2199.37
2022-08-16T09:34:08.177Z,2424.37
2022-08-16T09:35:07.885Z,2385.00
2022-08-16T09:36:12.148Z,2188.12
2022-08-16T09:37:18.130Z,2300.62
2022-08-16T09:38:08.654Z,2272.50
2022-08-16T09:39:06.723Z,2340.00
2022-08-16T09:40:32.866Z,2587.50
2022-08-16T09:41:14.603Z,2401.87
2022-08-16T09:42:05.849Z,2216.25
2022-08-16T09:43:05.760Z,2328.75
2022-08-16T09:45:09.256Z,2407.50
2022-08-16T09:45:11.777Z,2576.25
2022-08-16T09:46:44.520Z,2520.00
2022-08-16T09:47:10.373Z,2475.00
2022-08-16T09:48:04.071Z,2536.87
2022-08-16T09:49:04.339Z,2480.62
2022-08-16T09:50:04.318Z,2520.00
2022-08-16T09:51:03.174Z,2638.12
2022-08-16T09:52:02.873Z,2570.62
2022-08-16T09:53:02.586Z,2491.87
2022-08-16T09:54:02.267Z,2649.37
2022-08-16T09:55:01.921Z,2806.87
2022-08-16T09:56:01.642Z,2767.50
2022-08-16T09:57:01.347Z,2756.25
2022-08-16T09:58:01.010Z,2655.00
2022-08-16T09:59:03.779Z,2840.62
2022-08-16T10:00:00.376Z,2846.25
2022-08-16T10:01:00.848Z,2863.12
2022-08-16T10:01:59.734Z,2874.37
2022-08-16T10:02:59.489Z,2362.50
2022-08-16T10:04:02.084Z,2716.87
2022-08-16T10:04:58.865Z,2801.25
2022-08-16T10:05:58.400Z,2891.25
2022-08-16T10:07:57.800Z,2615.62
2022-08-16T10:09:05.453Z,2626.87
2022-08-16T10:09:57.144Z,2694.37
2022-08-16T10:10:56.820Z,2463.75
2022-08-16T10:11:56.489Z,1980.00
2022-08-16T10:12:56.860Z,2435.62
2022-08-16T10:13:55.844Z,2255.62
2022-08-16T10:14:55.525Z,2238.75
2022-08-16T10:15:55.970Z,2542.50
2022-08-16T10:17:00.149Z,2812.50
2022-08-16T10:18:01.337Z,2953.12
2022-08-16T10:19:01.203Z,2857.50
2022-08-16T10:19:54.931Z,3161.25
2022-08-16T10:20:53.595Z,2593.12
2022-08-16T10:21:56.160Z,3251.25
2022-08-16T10:22:59.769Z,2930.62
2022-08-16T10:23:53.809Z,2806.87
2022-08-16T10:24:55.967Z,1878.75
2022-08-16T10:27:03.784Z,2086.87
2022-08-16T10:27:19.832Z,2255.62
2022-08-16T10:27:56.853Z,2700.00
2022-08-16T10:28:50.912Z,2086.87
2022-08-16T10:30:00.503Z,1648.12
2022-08-16T10:30:58.855Z,1395.00
2022-08-16T10:31:53.910Z,2953.12
2022-08-16T10:32:49.620Z,2947.50
2022-08-16T10:33:49.306Z,3009.37
2022-08-16T10:34:52.338Z,2913.75
2022-08-16T10:35:48.658Z,2761.87
2022-08-16T10:36:48.333Z,2930.62
2022-08-16T10:37:48.269Z,2581.87
2022-08-16T10:38:47.672Z,2666.25
2022-08-16T10:39:47.369Z,843.75
2022-08-16T10:40:47.024Z,776.25
2022-08-16T10:41:46.711Z,742.50
2022-08-16T10:42:46.433Z,753.75
2022-08-16T10:43:46.107Z,720.00
2022-08-16T10:44:53.462Z,725.62
2022-08-16T10:45:45.539Z,787.50
2022-08-16T10:46:46.273Z,832.50
2022-08-16T10:47:45.001Z,928.12
2022-08-16T10:48:46.902Z,1451.25
2022-08-16T10:49:44.470Z,933.75
2022-08-16T10:50:44.199Z,888.75
2022-08-16T10:52:01.825Z,810.00
2022-08-16T10:52:43.686Z,2137.50
2022-08-16T10:53:43.429Z,826.87
2022-08-16T10:54:59.195Z,2193.75
2022-08-16T10:55:45.116Z,3060.00
2022-08-16T10:56:51.492Z,3065.62
2022-08-16T10:57:43.394Z,2795.62
2022-08-16T10:58:42.111Z,928.12
2022-08-16T10:59:45.911Z,2958.75
2022-08-16T11:00:41.563Z,1158.75
2022-08-16T11:01:44.035Z,1029.37
2022-08-16T11:02:58.320Z,990.00
2022-08-16T11:03:42.307Z,1203.75
2022-08-16T11:06:40.100Z,1091.25
2022-08-16T11:07:43.728Z,877.50
2022-08-16T11:08:44.977Z,2396.25
2022-08-16T11:09:43.974Z,956.25
2022-08-16T11:12:07.763Z,843.75
2022-08-16T11:12:39.510Z,826.87
2022-08-16T11:14:38.315Z,900.00
2022-08-16T11:15:37.775Z,3172.50
2022-08-16T11:17:37.279Z,2205.00
2022-08-16T11:19:03.644Z,1636.87
2022-08-16T11:20:00.577Z,3358.12
2022-08-16T11:20:41.368Z,3459.37
2022-08-16T11:21:36.396Z,2981.25
2022-08-16T11:22:42.256Z,3515.62
2022-08-16T11:23:35.646Z,3346.87
2022-08-16T11:24:40.086Z,3285.00
2022-08-16T11:26:34.712Z,928.12
2022-08-16T11:27:35.937Z,911.25
2022-08-16T11:29:12.718Z,3240.00
2022-08-16T11:29:34.801Z,984.37
2022-08-16T11:30:38.796Z,1451.25
2022-08-16T11:31:33.227Z,3352.50
2022-08-16T11:32:33.823Z,3442.50
2022-08-16T11:35:03.935Z,3380.62
2022-08-16T11:36:31.656Z,3431.25
2022-08-16T11:38:04.376Z,3324.37
2022-08-16T11:38:51.584Z,3420.00
2022-08-16T11:39:30.729Z,3397.50
2022-08-16T11:40:32.345Z,984.37
2022-08-16T11:41:32.295Z,928.12
2022-08-16T11:42:32.184Z,922.50
2022-08-16T11:43:29.313Z,1006.87
2022-08-16T11:44:45.270Z,3245.62
2022-08-16T11:45:31.535Z,3273.75
2022-08-16T11:46:45.049Z,3296.25
2022-08-16T11:47:28.051Z,3234.37
2022-08-16T11:48:27.667Z,3504.37
2022-08-16T11:49:27.383Z,3510.00
2022-08-16T11:50:27.043Z,3560.62
2022-08-16T11:51:26.641Z,3802.50
2022-08-16T11:52:27.792Z,3476.25
2022-08-16T11:53:25.987Z,3318.75
2022-08-16T11:54:33.271Z,3380.62
2022-08-16T11:55:26.279Z,3487.50
2022-08-16T11:56:37.818Z,3431.25
2022-08-16T11:57:25.537Z,3020.62
2022-08-16T11:58:24.604Z,3521.25
2022-08-16T11:59:24.444Z,3532.50
2022-08-16T12:00:33.819Z,3560.62
2022-08-16T12:01:29.733Z,3645.00
2022-08-16T12:02:32.067Z,3639.37
2022-08-16T12:03:34.648Z,3583.12
2022-08-16T12:04:22.371Z,3577.50
2022-08-16T12:05:21.463Z,3510.00
2022-08-16T12:06:30.265Z,2458.12
2022-08-16T12:07:23.611Z,3262.50
2022-08-16T12:08:20.293Z,3431.25
2022-08-16T12:09:19.869Z,3504.37
2022-08-16T12:10:19.522Z,3521.25
2022-08-16T12:11:19.113Z,3510.00
2022-08-16T12:12:18.762Z,3459.37
2022-08-16T12:13:18.255Z,3504.37
2022-08-16T12:14:17.910Z,3622.50
2022-08-16T12:15:17.506Z,3774.37
2022-08-16T12:16:17.542Z,3678.75
2022-08-16T12:17:16.705Z,3543.75
2022-08-16T12:18:20.620Z,3532.50
2022-08-16T12:19:15.899Z,3431.25
2022-08-16T12:20:18.661Z,3240.00
2022-08-16T12:21:15.091Z,3245.62
2022-08-16T12:22:19.472Z,2750.62
2022-08-16T12:23:14.237Z,2233.12
2022-08-16T12:24:13.894Z,3065.62
2022-08-16T12:25:13.499Z,2998.12
2022-08-16T12:26:13.104Z,1226.25
2022-08-16T12:27:12.679Z,1175.62
2022-08-16T12:28:12.327Z,1125.00
2022-08-16T12:29:12.045Z,1012.50
2022-08-16T12:30:21.277Z,1023.75
2022-08-16T12:31:12.367Z,1068.75
2022-08-16T12:32:27.145Z,1141.87
2022-08-16T12:33:11.792Z,1237.50
2022-08-16T12:34:10.479Z,3155.62
2022-08-16T12:35:11.172Z,3465.00
2022-08-16T12:36:09.994Z,2199.37
2022-08-16T12:37:11.637Z,1299.37
2022-08-16T12:38:41.584Z,1209.37
2022-08-16T12:39:09.845Z,1136.25
2022-08-16T12:40:08.579Z,1170.00
2022-08-16T12:41:09.232Z,1215.00
2022-08-16T12:42:07.938Z,1276.87
2022-08-16T12:43:07.649Z,3369.37